createdAt,value
2017-12-02T00:00:59.432Z,50.63
2017-12-02T00:03:26.992Z,46.97
2017-12-02T00:05:54.574Z,50.33
2017-12-02T00:08:22.139Z,47.33
2017-12-02T00:10:49.727Z,65.05
2017-12-02T00:13:18.291Z,60.58
2017-12-02T00:15:45.899Z,63.92
2017-12-02T00:18:13.681Z,60.80
2017-12-02T00:20:41.334Z,65.45
2017-12-02T00:23:08.967Z,64.70
2017-12-02T00:25:36.527Z,57.97
2017-12-02T00:28:04.101Z,64.00
2017-12-02T00:30:31.664Z,67.22
2017-12-02T00:32:59.227Z,62.67
2017-12-02T00:35:26.828Z,64.93
2017-12-02T00:37:54.393Z,70.68
2017-12-02T00:40:21.990Z,59.95
2017-12-02T00:42:49.606Z,73.25
2017-12-02T00:45:17.984Z,64.80
2017-12-02T00:47:46.405Z,75.15
2017-12-02T00:50:14.083Z,58.35
2017-12-02T00:52:41.643Z,69.15
2017-12-02T00:55:09.210Z,71.03
2017-12-02T00:57:36.990Z,76.00
2017-12-02T01:00:04.737Z,71.22
2017-12-02T01:02:32.330Z,78.82
2017-12-02T01:04:59.930Z,74.32
2017-12-02T01:07:28.296Z,73.15
2017-12-02T01:09:56.301Z,63.90
2017-12-02T01:12:23.934Z,72.50
2017-12-02T01:14:51.506Z,70.97
2017-12-02T01:17:19.081Z,67.00
2017-12-02T01:19:46.659Z,67.35
2017-12-02T01:22:15.158Z,68.65
2017-12-02T01:24:42.734Z,68.82
2017-12-02T01:27:10.313Z,66.30
2017-12-02T01:29:37.851Z,75.03
2017-12-02T01:32:06.215Z,77.70
2017-12-02T01:34:33.774Z,75.22
2017-12-02T01:37:02.358Z,74.22
2017-12-02T01:39:29.942Z,73.20
2017-12-02T01:41:58.276Z,68.97
2017-12-02T01:44:25.901Z,74.15
2017-12-02T01:46:54.213Z,74.87
2017-12-02T01:49:21.760Z,55.15
2017-12-02T01:51:49.336Z,59.47
2017-12-02T01:54:16.942Z,55.38
2017-12-02T01:56:44.488Z,56.40
2017-12-02T01:59:12.064Z,51.37
2017-12-02T02:01:39.647Z,56.00
2017-12-02T02:04:08.388Z,57.42
2017-12-02T02:06:35.964Z,61.90
2017-12-02T02:09:03.652Z,45.72
2017-12-02T02:11:32.247Z,57.88
2017-12-02T02:13:59.871Z,57.67
2017-12-02T02:16:27.428Z,59.53
2017-12-02T02:18:55.009Z,57.25
2017-12-02T02:21:22.982Z,54.28
2017-12-02T02:23:50.602Z,48.67
2017-12-02T02:26:18.266Z,48.53
2017-12-02T02:28:45.770Z,54.03
2017-12-02T02:31:13.332Z,51.58
2017-12-02T02:33:40.974Z,50.15
2017-12-02T02:36:09.309Z,50.95
2017-12-02T02:38:36.862Z,52.85
2017-12-02T02:41:04.461Z,54.17
2017-12-02T02:43:32.004Z,58.13
2017-12-02T02:45:59.597Z,59.53
2017-12-02T02:48:27.948Z,55.58
2017-12-02T02:50:55.503Z,56.95
2017-12-02T02:53:23.091Z,54.97
2017-12-02T02:55:50.645Z,52.00
2017-12-02T02:58:18.218Z,53.20
2017-12-02T03:00:45.769Z,53.80
2017-12-02T03:03:13.336Z,56.30
2017-12-02T03:05:40.904Z,47.90
2017-12-02T03:08:08.456Z,53.30
2017-12-02T03:10:36.027Z,56.75
2017-12-02T03:13:03.686Z,45.95
2017-12-02T03:15:31.382Z,52.28
2017-12-02T03:17:58.969Z,48.58
2017-12-02T03:20:27.312Z,48.83
2017-12-02T03:22:54.909Z,56.28
2017-12-02T03:25:22.495Z,44.30
2017-12-02T03:27:50.823Z,45.60
2017-12-02T03:30:18.416Z,41.83
2017-12-02T03:32:45.989Z,49.75
2017-12-02T03:35:14.574Z,49.15
2017-12-02T03:37:42.944Z,37.65
2017-12-02T03:40:11.332Z,45.78
2017-12-02T03:42:38.946Z,42.50
2017-12-02T03:45:06.532Z,42.20
2017-12-02T03:47:34.091Z,42.45
2017-12-02T03:50:01.655Z,41.30
2017-12-02T03:52:29.234Z,41.10
2017-12-02T03:54:56.823Z,50.85
2017-12-02T03:57:24.879Z,46.75
2017-12-02T03:59:52.502Z,45.38
2017-12-02T04:02:20.098Z,43.72
2017-12-02T04:04:47.680Z,46.05
2017-12-02T04:07:15.243Z,40.72
2017-12-02T04:09:42.828Z,41.37
2017-12-02T04:12:10.452Z,43.47
2017-12-02T04:14:38.042Z,50.10
2017-12-02T04:17:05.619Z,47.88
2017-12-02T04:19:34.196Z,40.33
2017-12-02T04:22:01.758Z,45.83
2017-12-02T04:24:29.309Z,48.10
2017-12-02T04:26:56.899Z,46.42
2017-12-02T04:29:24.456Z,44.78
2017-12-02T04:31:52.057Z,48.25
2017-12-02T04:34:19.635Z,55.03
2017-12-02T04:36:47.226Z,61.80
2017-12-02T04:39:14.811Z,62.20
2017-12-02T04:41:42.381Z,61.25
2017-12-02T04:44:09.952Z,58.72
2017-12-02T04:46:37.496Z,56.28
2017-12-02T04:49:05.092Z,54.35
2017-12-02T04:51:32.676Z,59.42
2017-12-02T04:54:01.885Z,65.18
2017-12-02T04:56:30.559Z,64.68
2017-12-02T04:59:05.207Z,56.58
2017-12-02T05:01:32.802Z,61.67
2017-12-02T05:04:00.434Z,57.22
2017-12-02T05:06:27.999Z,62.00
2017-12-02T05:08:56.361Z,74.85
2017-12-02T05:11:24.717Z,60.08
2017-12-02T05:13:55.648Z,81.78
2017-12-02T05:16:23.274Z,67.68
2017-12-02T05:18:50.843Z,64.57
2017-12-02T05:21:18.430Z,67.72
2017-12-02T05:23:46.072Z,59.67
2017-12-02T05:26:13.653Z,66.12
2017-12-02T05:28:41.263Z,57.55
2017-12-02T05:31:09.546Z,63.13
2017-12-02T05:33:37.157Z,59.97
2017-12-02T05:36:07.816Z,65.72
2017-12-02T05:38:35.401Z,69.82
2017-12-02T05:41:03.020Z,63.25
2017-12-02T05:43:30.632Z,68.70
2017-12-02T05:45:58.222Z,66.12
2017-12-02T05:48:26.621Z,69.85
2017-12-02T05:50:57.844Z,57.05
2017-12-02T05:53:25.453Z,55.70
2017-12-02T05:55:53.057Z,71.07
2017-12-02T05:58:20.622Z,61.13
2017-12-02T06:00:48.203Z,65.07
2017-12-02T06:03:19.358Z,54.55
2017-12-02T06:05:46.928Z,63.42
2017-12-02T06:08:14.522Z,62.47
2017-12-02T06:10:42.093Z,58.72
2017-12-02T06:13:09.676Z,67.75
2017-12-02T06:15:37.251Z,64.45
2017-12-02T06:18:04.857Z,66.28
2017-12-02T06:20:33.260Z,66.93
2017-12-02T06:23:01.624Z,67.60
2017-12-02T06:25:42.007Z,65.35
2017-12-02T06:28:09.593Z,65.75
2017-12-02T06:30:37.178Z,57.72
2017-12-02T06:33:04.763Z,55.60
2017-12-02T06:35:32.421Z,73.78
2017-12-02T06:38:00.021Z,67.75
2017-12-02T06:40:28.825Z,65.43
2017-12-02T06:42:57.215Z,67.07
2017-12-02T06:45:24.818Z,62.55
2017-12-02T06:47:52.394Z,55.55
2017-12-02T06:50:19.962Z,63.00
2017-12-02T06:52:48.062Z,58.70
2017-12-02T06:55:15.645Z,58.78
2017-12-02T06:57:43.266Z,46.25
2017-12-02T07:00:10.828Z,61.45
2017-12-02T07:02:38.459Z,49.13
2017-12-02T07:05:06.047Z,49.08
2017-12-02T07:07:33.662Z,45.70
2017-12-02T07:10:02.063Z,42.33
2017-12-02T07:12:29.697Z,50.90
2017-12-02T07:14:57.269Z,49.53
2017-12-02T07:17:24.974Z,46.28
2017-12-02T07:19:52.555Z,46.10
2017-12-02T07:22:20.123Z,44.85
2017-12-02T07:24:47.721Z,43.20
2017-12-02T07:27:15.308Z,50.50
2017-12-02T07:29:51.756Z,51.90
2017-12-02T07:32:19.342Z,33.13
2017-12-02T07:34:51.406Z,45.30
2017-12-02T07:37:19.752Z,45.63
2017-12-02T07:39:47.326Z,45.25
2017-12-02T07:42:14.971Z,35.58
2017-12-02T07:44:42.541Z,44.30
2017-12-02T07:47:10.261Z,42.05
2017-12-02T07:49:37.819Z,46.45
2017-12-02T07:52:10.430Z,54.45
2017-12-02T07:54:37.987Z,48.20
2017-12-02T07:57:05.580Z,46.70
2017-12-02T07:59:33.540Z,35.72
2017-12-02T08:02:01.157Z,42.30
2017-12-02T08:04:29.495Z,38.30
2017-12-02T08:06:57.087Z,41.70
2017-12-02T08:09:24.639Z,36.80
2017-12-02T08:11:52.201Z,37.05
2017-12-02T08:14:19.810Z,36.00
2017-12-02T08:16:50.711Z,40.95
2017-12-02T08:19:18.329Z,44.63
2017-12-02T08:21:45.926Z,44.03
2017-12-02T08:24:13.584Z,36.25
2017-12-02T08:26:41.156Z,39.42
2017-12-02T08:29:08.719Z,38.03
2017-12-02T08:31:36.296Z,40.55
2017-12-02T08:34:03.889Z,36.72
2017-12-02T08:36:31.485Z,33.67
2017-12-02T08:38:59.942Z,33.90
2017-12-02T08:41:29.351Z,41.25
2017-12-02T08:43:56.946Z,33.80
2017-12-02T08:46:24.560Z,36.33
2017-12-02T08:48:52.121Z,32.67
2017-12-02T08:51:20.303Z,35.42
2017-12-02T08:53:47.906Z,39.10
2017-12-02T08:56:16.244Z,31.75
2017-12-02T08:58:43.851Z,35.28
2017-12-02T09:01:12.235Z,36.83
2017-12-02T09:03:40.603Z,29.95
2017-12-02T09:06:08.218Z,38.17
2017-12-02T09:08:35.808Z,29.63
2017-12-02T09:11:03.426Z,33.00
2017-12-02T09:13:31.075Z,29.40
2017-12-02T09:15:59.837Z,27.15
2017-12-02T09:18:28.458Z,36.08
2017-12-02T09:20:56.795Z,32.70
2017-12-02T09:23:24.432Z,32.97
2017-12-02T09:25:52.054Z,27.55
2017-12-02T09:28:19.654Z,29.63
2017-12-02T09:30:48.000Z,27.20
2017-12-02T09:33:15.821Z,27.73
2017-12-02T09:35:43.444Z,30.52
2017-12-02T09:38:11.056Z,30.23
2017-12-02T09:40:38.733Z,29.42
2017-12-02T09:43:07.195Z,30.50
2017-12-02T09:45:34.882Z,32.95
2017-12-02T09:48:03.568Z,37.53
2017-12-02T09:50:31.561Z,31.50
2017-12-02T09:53:01.043Z,32.15
2017-12-02T09:55:29.055Z,30.10
2017-12-02T09:57:57.222Z,31.85
2017-12-02T10:00:25.110Z,32.50
2017-12-02T10:02:53.255Z,29.15
2017-12-02T10:05:21.359Z,29.63
2017-12-02T10:07:50.343Z,33.40
2017-12-02T10:10:18.437Z,33.65
2017-12-02T10:12:47.075Z,33.17
2017-12-02T10:15:15.859Z,32.90
2017-12-02T10:17:45.743Z,29.00
2017-12-02T10:20:13.501Z,34.58
2017-12-02T10:22:41.122Z,35.13
2017-12-02T10:25:08.754Z,30.85
2017-12-02T10:27:36.342Z,28.73
2017-12-02T10:30:04.990Z,26.80
2017-12-02T10:32:32.596Z,28.30
2017-12-02T10:35:00.965Z,27.08
2017-12-02T10:37:28.598Z,29.83
2017-12-02T10:39:56.215Z,31.37
2017-12-02T10:42:24.769Z,27.05
2017-12-02T10:44:52.356Z,28.95
2017-12-02T10:47:21.495Z,24.83
2017-12-02T10:49:50.096Z,32.03
2017-12-02T10:52:18.785Z,29.00
2017-12-02T10:54:46.344Z,31.55
2017-12-02T10:57:13.939Z,29.55
2017-12-02T10:59:41.527Z,29.77
2017-12-02T11:02:09.097Z,28.60
2017-12-02T11:04:37.514Z,25.88
2017-12-02T11:07:05.103Z,26.37
2017-12-02T11:09:32.704Z,28.27
2017-12-02T11:12:00.361Z,34.75
2017-12-02T11:14:27.972Z,26.12
2017-12-02T11:16:55.550Z,21.23
2017-12-02T11:19:23.150Z,27.17
2017-12-02T11:21:50.713Z,28.20
2017-12-02T11:24:18.315Z,29.52
2017-12-02T11:26:45.925Z,26.83
2017-12-02T11:29:13.480Z,29.02
2017-12-02T11:31:41.041Z,25.52
2017-12-02T11:34:08.642Z,24.27
2017-12-02T11:36:37.230Z,22.37
2017-12-02T11:39:04.827Z,18.73
2017-12-02T11:41:33.204Z,21.30
2017-12-02T11:44:01.516Z,22.83
2017-12-02T11:46:29.066Z,18.08
2017-12-02T11:48:57.533Z,20.55
2017-12-02T11:51:25.865Z,21.98
2017-12-02T11:53:53.438Z,19.10
2017-12-02T11:56:22.069Z,21.20
2017-12-02T11:58:49.637Z,18.40
2017-12-02T12:01:17.981Z,24.87
2017-12-02T12:03:45.576Z,22.37
2017-12-02T12:06:13.933Z,19.65
2017-12-02T12:08:41.553Z,28.08
2017-12-02T12:11:09.127Z,22.52
2017-12-02T12:13:36.704Z,23.02
2017-12-02T12:16:04.509Z,21.73
2017-12-02T12:18:32.068Z,24.33
2017-12-02T12:20:59.673Z,21.20
2017-12-02T12:23:27.995Z,16.83
2017-12-02T12:25:55.562Z,21.90
2017-12-02T12:28:23.150Z,23.77
2017-12-02T12:30:50.735Z,28.00
2017-12-02T12:33:19.072Z,28.35
2017-12-02T12:35:46.646Z,20.12
2017-12-02T12:38:14.264Z,27.20
2017-12-02T12:40:43.965Z,22.75
2017-12-02T12:43:12.440Z,26.12
2017-12-02T12:45:41.669Z,25.70
2017-12-02T12:48:09.278Z,13.85
2017-12-02T12:50:36.840Z,15.50
2017-12-02T12:53:04.457Z,15.68
2017-12-02T12:55:32.811Z,17.35
2017-12-02T12:58:00.418Z,18.02
2017-12-02T13:00:28.010Z,17.48
2017-12-02T13:02:55.615Z,21.80
2017-12-02T13:05:23.191Z,17.80
2017-12-02T13:07:51.520Z,19.58
2017-12-02T13:10:19.128Z,17.15
2017-12-02T13:12:46.738Z,24.15
2017-12-02T13:15:14.306Z,18.85
2017-12-02T13:17:42.614Z,20.15
2017-12-02T13:20:10.276Z,20.20
2017-12-02T13:22:37.821Z,17.42
2017-12-02T13:25:05.451Z,25.73
2017-12-02T13:27:33.814Z,24.60
2017-12-02T13:30:01.394Z,20.25
2017-12-02T13:32:29.146Z,30.27
2017-12-02T13:34:56.922Z,28.25
2017-12-02T13:37:24.565Z,32.08
2017-12-02T13:39:52.148Z,30.48
2017-12-02T13:42:19.705Z,25.95
2017-12-02T13:44:47.296Z,25.95
2017-12-02T13:47:15.684Z,28.52
2017-12-02T13:49:43.242Z,32.22
2017-12-02T13:52:11.644Z,26.00
2017-12-02T13:54:39.967Z,27.55
2017-12-02T13:57:07.532Z,31.50
2017-12-02T13:59:35.155Z,28.73
2017-12-02T14:02:03.505Z,23.92
2017-12-02T14:04:31.102Z,27.23
2017-12-02T14:06:59.471Z,25.00
2017-12-02T14:09:27.907Z,24.83
2017-12-02T14:11:56.317Z,29.55
2017-12-02T14:14:25.764Z,27.17
2017-12-02T14:16:54.103Z,24.50
2017-12-02T14:19:21.675Z,26.92
2017-12-02T14:21:49.255Z,26.98
2017-12-02T14:24:17.620Z,27.20
2017-12-02T14:26:45.960Z,24.65
2017-12-02T14:29:13.512Z,22.52
2017-12-02T14:31:41.116Z,23.12
2017-12-02T14:34:08.841Z,19.85
2017-12-02T14:36:36.455Z,24.10
2017-12-02T14:39:04.886Z,22.42
2017-12-02T14:41:33.280Z,17.87
2017-12-02T14:44:00.860Z,22.05
2017-12-02T14:46:28.463Z,22.50
2017-12-02T14:48:56.174Z,25.85
2017-12-02T14:51:23.784Z,23.87
2017-12-02T14:53:51.379Z,23.65
2017-12-02T14:56:18.936Z,20.55
2017-12-02T14:58:46.627Z,22.13
2017-12-02T15:01:14.968Z,26.70
2017-12-02T15:03:42.580Z,22.92
2017-12-02T15:06:11.104Z,24.65
2017-12-02T15:08:39.500Z,25.98
2017-12-02T15:11:07.203Z,21.70
2017-12-02T15:13:34.852Z,27.37
2017-12-02T15:16:02.497Z,21.92
2017-12-02T15:18:30.082Z,22.85
2017-12-02T15:20:57.648Z,21.50
2017-12-02T15:23:25.238Z,27.10
2017-12-02T15:25:53.211Z,27.33
2017-12-02T15:28:20.842Z,20.88
2017-12-02T15:30:48.680Z,19.83
2017-12-02T15:33:16.260Z,24.15
2017-12-02T15:35:44.164Z,21.48
2017-12-02T15:38:11.790Z,15.07
2017-12-02T15:40:39.392Z,21.48
2017-12-02T15:43:07.446Z,19.08
2017-12-02T15:45:35.157Z,15.65
2017-12-02T15:48:02.995Z,21.05
2017-12-02T15:50:30.571Z,19.30
2017-12-02T15:52:58.292Z,13.43
2017-12-02T15:55:25.950Z,18.00
2017-12-02T15:57:53.541Z,16.90
2017-12-02T16:00:21.243Z,12.45
2017-12-02T16:02:48.819Z,9.80
2017-12-02T16:05:16.408Z,11.77
2017-12-02T16:07:44.064Z,18.55
2017-12-02T16:10:12.867Z,20.98
2017-12-02T16:12:40.828Z,18.95
2017-12-02T16:15:08.539Z,19.85
2017-12-02T16:17:36.148Z,18.02
2017-12-02T16:20:03.758Z,16.83
2017-12-02T16:22:31.409Z,18.98
2017-12-02T16:25:01.133Z,14.43
2017-12-02T16:27:29.103Z,12.60
2017-12-02T16:29:58.327Z,14.10
2017-12-02T16:32:27.177Z,15.80
2017-12-02T16:34:54.928Z,19.80
2017-12-02T16:37:25.862Z,10.93
2017-12-02T16:39:55.528Z,12.52
2017-12-02T16:42:27.178Z,22.80
2017-12-02T16:44:57.068Z,15.80
2017-12-02T16:47:25.179Z,14.52
2017-12-02T16:49:53.499Z,12.18
2017-12-02T16:52:21.289Z,13.02
2017-12-02T16:54:50.233Z,17.05
2017-12-02T16:57:19.715Z,19.20
2017-12-02T16:59:47.769Z,17.58
2017-12-02T17:02:15.640Z,19.52
2017-12-02T17:04:43.626Z,14.82
2017-12-02T17:07:12.072Z,17.42
2017-12-02T17:09:41.163Z,24.27
2017-12-02T17:12:10.691Z,14.63
2017-12-02T17:14:38.278Z,18.02
2017-12-02T17:17:05.870Z,20.20
2017-12-02T17:19:34.346Z,13.02
2017-12-02T17:22:02.393Z,14.90
2017-12-02T17:24:32.034Z,14.45
2017-12-02T17:27:01.310Z,12.13
2017-12-02T17:29:29.102Z,15.27
2017-12-02T17:32:04.913Z,14.75
2017-12-02T17:34:32.485Z,16.77
2017-12-02T17:37:02.073Z,16.83
2017-12-02T17:39:29.929Z,18.70
2017-12-02T17:41:57.884Z,20.62
2017-12-02T17:44:25.912Z,19.02
2017-12-02T17:46:53.537Z,18.02
2017-12-02T17:49:21.417Z,19.27
2017-12-02T17:51:49.262Z,21.05
2017-12-02T17:54:17.231Z,20.20
2017-12-02T17:56:44.842Z,25.27
2017-12-02T17:59:12.922Z,20.92
2017-12-02T18:01:40.988Z,20.52
2017-12-02T18:04:09.164Z,15.38
2017-12-02T18:06:37.358Z,18.17
2017-12-02T18:09:04.998Z,20.05
2017-12-02T18:11:32.943Z,19.35
2017-12-02T18:14:00.937Z,20.12
2017-12-02T18:16:28.573Z,17.62
2017-12-02T18:18:56.661Z,15.25
2017-12-02T18:21:24.402Z,16.37
2017-12-02T18:23:54.345Z,12.32
2017-12-02T18:26:22.814Z,15.02
2017-12-02T18:28:50.474Z,21.55
2017-12-02T18:31:18.355Z,17.25
2017-12-02T18:33:45.956Z,18.77
2017-12-02T18:36:14.362Z,17.15
2017-12-02T18:38:42.137Z,17.25
2017-12-02T18:41:09.701Z,18.75
2017-12-02T18:43:37.301Z,20.73
2017-12-02T18:46:04.953Z,17.33
2017-12-02T18:48:34.023Z,17.77
2017-12-02T18:51:01.939Z,19.37
2017-12-02T18:53:30.889Z,22.17
2017-12-02T18:55:58.702Z,19.62
2017-12-02T18:58:26.457Z,22.35
2017-12-02T19:00:54.503Z,23.12
2017-12-02T19:03:26.586Z,22.02
2017-12-02T19:05:54.413Z,19.40
2017-12-02T19:08:24.650Z,19.50
2017-12-02T19:10:53.753Z,19.98
2017-12-02T19:13:21.492Z,27.77
2017-12-02T19:15:49.123Z,19.25
2017-12-02T19:18:16.737Z,19.08
2017-12-02T19:20:44.570Z,23.05
2017-12-02T19:23:12.226Z,20.15
2017-12-02T19:25:39.878Z,23.30
2017-12-02T19:28:07.420Z,24.75
2017-12-02T19:30:35.013Z,19.08
2017-12-02T19:33:02.598Z,21.40
2017-12-02T19:35:30.193Z,15.30
2017-12-02T19:37:57.773Z,20.95
2017-12-02T19:40:25.442Z,22.35
2017-12-02T19:42:54.241Z,17.98
2017-12-02T19:45:22.689Z,21.37
2017-12-02T19:47:50.440Z,19.60
2017-12-02T19:50:18.065Z,16.17
2017-12-02T19:52:45.705Z,19.58
2017-12-02T19:55:14.241Z,20.17
2017-12-02T19:57:42.069Z,18.05
2017-12-02T20:00:10.125Z,21.50
2017-12-02T20:02:38.085Z,19.55
2017-12-02T20:05:05.740Z,22.75
2017-12-02T20:07:33.658Z,15.38
2017-12-02T20:10:01.321Z,18.90
2017-12-02T20:12:28.896Z,20.00
2017-12-02T20:14:56.569Z,15.38
2017-12-02T20:17:24.251Z,20.08
2017-12-02T20:19:52.731Z,22.48
2017-12-02T20:22:20.541Z,21.12
2017-12-02T20:24:48.188Z,21.33
2017-12-02T20:27:16.443Z,25.55
2017-12-02T20:29:45.549Z,19.70
2017-12-02T20:32:14.779Z,25.70
2017-12-02T20:34:45.728Z,23.73
2017-12-02T20:37:18.383Z,22.58
2017-12-02T20:39:50.094Z,23.55
2017-12-02T20:42:20.060Z,18.35
2017-12-02T20:44:53.290Z,21.40
2017-12-02T20:47:22.318Z,18.50
2017-12-02T20:49:50.753Z,18.42
2017-12-02T20:52:18.522Z,24.27
2017-12-02T20:54:47.031Z,21.33
2017-12-02T20:57:15.642Z,20.20
2017-12-02T20:59:44.001Z,19.42
2017-12-02T21:02:11.620Z,19.65
2017-12-02T21:04:41.231Z,25.45
2017-12-02T21:07:09.006Z,25.62
2017-12-02T21:09:37.342Z,24.73
2017-12-02T21:12:04.931Z,24.45
2017-12-02T21:14:32.592Z,25.35
2017-12-02T21:17:01.364Z,22.42
2017-12-02T21:19:30.484Z,24.02
2017-12-02T21:21:59.788Z,22.80
2017-12-02T21:24:27.998Z,19.98
2017-12-02T21:26:55.753Z,24.02
2017-12-02T21:29:25.122Z,22.60
2017-12-02T21:31:59.904Z,21.62
2017-12-02T21:34:28.391Z,21.80
2017-12-02T21:36:57.431Z,26.75
2017-12-02T21:39:25.618Z,25.17
2017-12-02T21:41:53.608Z,26.62
2017-12-02T21:44:22.647Z,26.40
2017-12-02T21:46:50.501Z,25.08
2017-12-02T21:49:18.314Z,25.20
2017-12-02T21:51:48.100Z,21.75
2017-12-02T21:54:16.081Z,28.70
2017-12-02T21:56:43.708Z,23.95
2017-12-02T21:59:11.433Z,24.90
2017-12-02T22:01:39.068Z,23.70
2017-12-02T22:04:06.710Z,21.40
2017-12-02T22:06:35.550Z,24.75
2017-12-02T22:09:03.267Z,24.75
2017-12-02T22:11:31.201Z,22.60
2017-12-02T22:13:59.517Z,22.65
2017-12-02T22:16:27.489Z,22.08
2017-12-02T22:18:55.576Z,24.83
2017-12-02T22:21:23.163Z,25.58
2017-12-02T22:23:50.817Z,21.83
2017-12-02T22:26:18.521Z,25.30
2017-12-02T22:28:48.547Z,22.77
2017-12-02T22:31:16.326Z,28.98
2017-12-02T22:33:44.333Z,25.58
2017-12-02T22:36:27.631Z,23.15
2017-12-02T22:38:57.264Z,29.50
2017-12-02T22:41:24.907Z,27.85
2017-12-02T22:43:52.910Z,27.42
2017-12-02T22:46:21.457Z,25.77
2017-12-02T22:48:49.259Z,24.35
2017-12-02T22:51:17.120Z,23.80
2017-12-02T22:53:45.808Z,29.87
2017-12-02T22:56:13.384Z,22.40
2017-12-02T22:58:41.855Z,22.25
2017-12-02T23:01:09.483Z,22.77
2017-12-02T23:03:37.851Z,26.15
2017-12-02T23:06:06.245Z,21.65
2017-12-02T23:08:34.612Z,20.95
2017-12-02T23:11:02.213Z,20.27
2017-12-02T23:13:29.883Z,22.73
2017-12-02T23:15:57.503Z,23.50
2017-12-02T23:18:26.570Z,19.67
2017-12-02T23:20:55.257Z,23.35
2017-12-02T23:23:25.203Z,23.42
2017-12-02T23:25:53.169Z,22.95
2017-12-02T23:28:22.536Z,20.52
2017-12-02T23:30:50.234Z,24.33
2017-12-02T23:33:17.872Z,22.60
2017-12-02T23:35:45.942Z,22.13
2017-12-02T23:38:14.151Z,19.27
2017-12-02T23:40:41.787Z,18.42
2017-12-02T23:43:09.455Z,22.25
2017-12-02T23:45:37.308Z,17.77
2017-12-02T23:48:06.554Z,25.50
2017-12-02T23:50:34.153Z,25.83
2017-12-02T23:53:01.736Z,19.75
2017-12-02T23:55:29.350Z,21.67
2017-12-02T23:57:56.936Z,23.20
